Forres, United Kingdom
Current Conditions -  °F | °C
As of 12:50 AM on Wednesday 28 Jan 2015 (Local Time) from EGQK Reporting Station
Scattered Clouds Scattered Clouds  
Wind Chill: 41°   Ceiling: Unl
Heat Index: 46°   Visibility: 6mi
Dew Point: 39°   Wind: 13mph
Humidity: 76%   Direction: 200°SSW
Pressure: 29.38"   Gusts: NA
Location:  57.61°N, 3.61°W
Report Text: EGQK 280050Z AUTO 20011KT 9999 SCT042/// 08/04 Q0995 RERA
Loading
Personal Weather Stations






























Interactive Weather Map New forecast layout! Learn more

10-Day Weather Forecast

Advertisements
Track Severe Weather on mobile